Novi Sad, Serbia
Current Conditions -  °F | °C
As of 6:30 PM on Saturday 25 Oct 2014 (Local Time) from LYBT Reporting Station
Broken Clouds Broken Clouds  
Wind Chill: 44°   Ceiling: 2600
Heat Index: 46°   Visibility: 6mi
Dew Point: 41°   Wind: 5mph
Humidity: 81%   Direction: 120°ESE
Pressure: 30.3"   Gusts: NA
Location:  45.25°N, 19.85°E
Report Text: LYBT 251630Z 12004KT 080V140 9999 BKN026 08/05 Q1026 NOSIG
Loading
Personal Weather Stations






























Interactive Weather Map
Tropical Storm Tracking
New forecast layout! Learn more

10-Day Weather Forecast

Advertisements
Track Severe Weather on mobile